Time;durP1;ratioP1;P1;durP2;ratioP2;P2;SDS_P1;SDS_P2;PMS_P1;PMS_P2;Temp;Humidity;BMP_temperature;BMP_pressure;BME280_temperature;BME280_humidity;BME280_pressure;Samples;Min_cycle;Max_cycle;Signal;HPM_P1;HPM_P2
2023/04/09 00:01:34;;;;;;;15.47;7.13;;;;;;;6.66;100.00;96883.19;5020518;28;20248;-69
2023/04/09 00:04:01;;;;;;;16.20;7.97;;;;;;;6.58;100.00;96885.69;5022543;28;20205;-69
2023/04/09 00:06:27;;;;;;;15.80;8.27;;;;;;;6.63;100.00;96886.06;5026733;28;20226;-69
2023/04/09 00:08:54;;;;;;;17.27;8.57;;;;;;;6.64;100.00;96879.88;5020254;28;20206;-69
2023/04/09 00:11:20;;;;;;;18.73;8.53;;;;;;;6.59;100.00;96879.44;5021623;28;20218;-69
2023/04/09 00:13:47;;;;;;;15.53;7.53;;;;;;;6.53;100.00;96874.78;5021072;28;20198;-69
2023/04/09 00:16:13;;;;;;;18.53;8.30;;;;;;;6.53;100.00;96874.78;5020663;28;20213;-69
2023/04/09 00:18:41;;;;;;;16.67;8.10;;;;;;;6.44;100.00;96872.13;5020543;28;20206;-69
2023/04/09 00:21:08;;;;;;;17.10;8.57;;;;;;;6.45;100.00;96877.25;5020270;28;20225;-69
2023/04/09 00:23:35;;;;;;;14.23;7.30;;;;;;;6.33;100.00;96870.47;5021194;28;20588;-69
2023/04/09 00:26:01;;;;;;;15.60;8.30;;;;;;;6.35;100.00;96871.19;5020056;28;20225;-69
2023/04/09 00:28:28;;;;;;;18.40;8.43;;;;;;;6.36;100.00;96870.19;5020237;28;20206;-70
2023/04/09 00:30:54;;;;;;;14.90;7.47;;;;;;;6.40;100.00;96874.22;5019989;28;20226;-69
2023/04/09 00:33:21;;;;;;;16.23;8.47;;;;;;;6.44;100.00;96870.38;5020338;28;20208;-70
2023/04/09 00:35:49;;;;;;;21.23;8.73;;;;;;;6.57;100.00;96870.94;5020685;28;20208;-69
2023/04/09 00:38:15;;;;;;;17.17;7.97;;;;;;;6.56;100.00;96871.06;5021773;28;20210;-69
2023/04/09 00:40:42;;;;;;;17.37;8.57;;;;;;;6.31;100.00;96867.19;5022751;28;20201;-69
2023/04/09 00:43:08;;;;;;;19.13;8.70;;;;;;;6.39;100.00;96866.47;5020098;28;20206;-69
2023/04/09 00:45:35;;;;;;;19.10;8.80;;;;;;;6.48;100.00;96874.38;5020457;28;20232;-69
2023/04/09 00:48:01;;;;;;;19.47;7.93;;;;;;;6.53;100.00;96869.56;5019514;28;20201;-69
2023/04/09 00:50:28;;;;;;;17.23;8.57;;;;;;;6.57;100.00;96865.69;5019889;28;20198;-69
2023/04/09 00:52:56;;;;;;;17.93;8.63;;;;;;;6.60;100.00;96873.25;5019690;28;20233;-69
2023/04/09 00:55:23;;;;;;;19.30;8.10;;;;;;;6.61;100.00;96874.91;5020789;28;20202;-69
2023/04/09 00:57:49;;;;;;;17.50;7.83;;;;;;;6.53;100.00;96869.56;5018956;28;20224;-69
2023/04/09 01:00:16;;;;;;;20.63;9.13;;;;;;;6.53;100.00;96871.31;5022176;28;20237;-69
2023/04/09 01:02:43;;;;;;;20.90;9.10;;;;;;;6.59;100.00;96868.97;5019494;28;20218;-69
2023/04/09 01:05:11;;;;;;;17.67;7.43;;;;;;;6.62;100.00;96865.25;5020239;28;20221;-69
2023/04/09 01:08:01;;;;;;;17.90;8.17;;;;;;;6.69;100.00;96875.06;5018203;28;20252;-69
2023/04/09 01:10:37;;;;;;;15.97;7.93;;;;;;;6.70;100.00;96868.84;5021376;28;20201;-69
2023/04/09 01:13:08;;;;;;;17.30;7.77;;;;;;;6.59;100.00;96878.63;5019142;28;21203;-69
2023/04/09 01:15:44;;;;;;;16.70;8.07;;;;;;;6.62;100.00;96873.97;5023335;28;20202;-69
2023/04/09 01:18:15;;;;;;;19.47;8.50;;;;;;;6.57;100.00;96868.31;5022873;28;20209;-69
2023/04/09 01:20:47;;;;;;;19.30;8.70;;;;;;;6.65;100.00;96864.00;5019485;28;20204;-69
2023/04/09 01:23:19;;;;;;;16.70;7.93;;;;;;;6.71;100.00;96862.66;5019251;28;20209;-69
2023/04/09 01:26:07;;;;;;;17.57;7.40;;;;;;;6.76;100.00;96866.50;5020067;28;20230;-69
2023/04/09 01:28:39;;;;;;;16.20;7.40;;;;;;;6.74;100.00;96870.22;5018677;28;20205;-69
2023/04/09 01:31:12;;;;;;;19.10;8.23;;;;;;;6.68;100.00;96855.91;5024839;28;20313;-69
2023/04/09 01:33:39;;;;;;;20.43;8.93;;;;;;;6.64;100.00;96866.78;5019214;28;20213;-69
2023/04/09 01:36:07;;;;;;;18.00;8.10;;;;;;;6.51;100.00;96866.22;5021439;28;20210;-69
2023/04/09 01:38:36;;;;;;;17.60;8.00;;;;;;;6.58;100.00;96869.97;5018154;28;20209;-69
2023/04/09 01:41:03;;;;;;;19.70;8.07;;;;;;;6.58;100.00;96867.34;5020232;28;20234;-69
2023/04/09 01:43:31;;;;;;;18.07;8.33;;;;;;;6.58;100.00;96872.59;5019138;28;20209;-69
2023/04/09 01:46:01;;;;;;;15.50;7.73;;;;;;;6.64;100.00;96869.41;5019432;28;20229;-69
2023/04/09 01:48:29;;;;;;;19.90;8.23;;;;;;;6.59;100.00;96873.41;5017756;28;20209;-69
2023/04/09 01:50:56;;;;;;;19.90;8.57;;;;;;;6.44;100.00;96859.06;5018770;28;20213;-69
2023/04/09 01:53:23;;;;;;;19.43;8.50;;;;;;;6.47;100.00;96870.09;5018328;28;20289;-69
2023/04/09 01:55:49;;;;;;;16.67;7.87;;;;;;;6.50;100.00;96869.81;5018898;28;20287;-69
2023/04/09 01:58:16;;;;;;;19.33;8.90;;;;;;;6.42;100.00;96877.53;5021563;28;20293;-71
2023/04/09 02:00:47;;;;;;;19.83;9.87;;;;;;;6.38;100.00;96872.72;5027774;28;20210;-71
2023/04/09 02:03:18;;;;;;;16.63;8.27;;;;;;;6.43;100.00;96873.94;5021209;28;20210;-71
2023/04/09 02:05:49;;;;;;;16.93;8.07;;;;;;;6.31;100.00;96869.81;5019777;28;20308;-71
2023/04/09 02:08:20;;;;;;;21.83;8.37;;;;;;;6.32;100.00;96868.81;5021851;28;20213;-71
2023/04/09 02:10:52;;;;;;;22.37;9.80;;;;;;;6.31;100.00;96868.97;5020781;28;20206;-71
2023/04/09 02:13:20;;;;;;;18.63;8.87;;;;;;;6.19;100.00;96876.09;5019292;28;20566;-71
2023/04/09 02:15:48;;;;;;;19.30;8.70;;;;;;;6.33;100.00;96875.72;5027026;28;20206;-71
2023/04/09 02:18:23;;;;;;;16.70;8.33;;;;;;;6.44;100.00;96867.75;5017768;28;20216;-71
2023/04/09 11:44:05;;;;;;;12.05;5.50;;;;;;;14.05;52.88;96868.78;4991466;28;21031;-72
2023/04/09 11:46:32;;;;;;;8.82;4.88;;;;;;;13.48;55.97;96883.63;4991781;28;20198;-73
2023/04/09 11:48:59;;;;;;;10.93;5.50;;;;;;;13.04;55.32;96899.53;4990286;28;20587;-72
2023/04/09 11:51:26;;;;;;;11.75;5.60;;;;;;;12.81;56.39;96896.81;4989371;28;20215;-71
2023/04/09 11:53:54;;;;;;;10.77;5.85;;;;;;;12.66;57.15;96899.56;4990599;28;20558;-71
2023/04/09 11:56:20;;;;;;;12.60;5.90;;;;;;;12.66;57.49;96903.03;4990328;28;20199;-71
2023/04/09 11:58:48;;;;;;;10.38;5.38;;;;;;;12.71;56.05;96894.59;4990315;28;20207;-71
2023/04/09 12:01:15;;;;;;;12.98;5.60;;;;;;;13.05;57.72;96896.69;4990079;28;20230;-71
2023/04/09 12:03:42;;;;;;;10.02;5.22;;;;;;;13.06;53.73;96905.44;4990727;28;20572;-71
2023/04/09 12:06:09;;;;;;;12.73;5.27;;;;;;;12.79;57.29;96911.22;4990438;28;20974;-72
2023/04/09 12:08:36;;;;;;;11.35;5.60;;;;;;;12.85;56.82;96900.78;4990338;28;20217;-71
2023/04/09 12:11:10;;;;;;;13.70;5.93;;;;;;;13.29;58.36;96903.63;4989509;28;20213;-72
2023/04/09 12:13:41;;;;;;;11.70;5.57;;;;;;;13.72;56.49;96894.00;4990262;28;20782;-71
2023/04/09 12:16:08;;;;;;;11.27;5.22;;;;;;;14.06;54.43;96897.78;4990301;28;20683;-71
2023/04/09 12:18:37;;;;;;;13.65;5.78;;;;;;;14.63;54.69;96887.34;4990314;28;20211;-72
2023/04/09 12:21:04;;;;;;;10.02;5.45;;;;;;;14.41;55.11;96882.97;4989342;28;20263;-72
2023/04/09 12:23:32;;;;;;;10.93;5.65;;;;;;;13.86;55.21;96890.53;4989912;28;20227;-72
2023/04/09 12:26:00;;;;;;;12.15;6.20;;;;;;;13.33;58.17;96889.88;4989646;28;20208;-71
2023/04/09 12:28:27;;;;;;;12.15;6.25;;;;;;;13.00;57.44;96901.69;4991297;28;20314;-72
2023/04/09 12:47:51;;;;;;;13.85;7.53;;;;;;;14.40;54.50;96881.34;4990914;28;20564;-72
2023/04/09 12:50:18;;;;;;;10.75;6.45;;;;;;;14.44;54.87;96879.97;4991362;28;20206;-72
2023/04/09 12:52:45;;;;;;;11.48;5.85;;;;;;;14.80;54.28;96884.25;4989916;28;20590;-72
2023/04/09 12:55:12;;;;;;;10.77;5.55;;;;;;;14.57;55.63;96885.41;4992105;28;20541;-71
2023/04/09 12:57:39;;;;;;;10.00;5.47;;;;;;;14.74;53.38;96883.19;4991036;28;20221;-71
2023/04/09 13:00:07;;;;;;;9.38;5.15;;;;;;;14.65;53.02;96873.69;4994127;28;20207;-72
2023/04/09 13:02:34;;;;;;;12.70;6.00;;;;;;;14.91;55.89;96873.16;4990951;28;20284;-72
2023/04/09 13:05:03;;;;;;;11.52;5.50;;;;;;;15.19;54.23;96874.06;4990446;28;20209;-71
2023/04/09 13:07:29;;;;;;;11.38;6.25;;;;;;;14.93;52.99;96866.66;4989912;28;20219;-73
2023/04/09 13:09:56;;;;;;;12.23;5.68;;;;;;;15.15;54.08;96868.31;4990557;28;20207;-72
2023/04/09 13:12:23;;;;;;;10.23;5.75;;;;;;;14.95;53.04;96877.09;4989540;28;20690;-72
2023/04/09 13:14:53;;;;;;;9.70;4.57;;;;;;;14.37;51.78;96868.44;4992790;28;20253;-72
2023/04/09 13:17:20;;;;;;;12.13;5.60;;;;;;;14.02;55.00;96869.97;4989906;28;20203;-72
2023/04/09 13:19:46;;;;;;;9.07;5.13;;;;;;;13.60;55.62;96866.28;4976962;28;20973;-72
2023/04/09 13:22:14;;;;;;;8.23;4.30;;;;;;;13.97;51.30;96865.41;4979824;28;20324;-72
2023/04/09 13:24:42;;;;;;;8.07;4.10;;;;;;;14.20;49.14;96865.16;4989901;28;20293;-72
2023/04/09 13:27:08;;;;;;;8.27;4.70;;;;;;;14.81;52.29;96860.19;4988796;28;20218;-71
2023/04/09 13:29:35;;;;;;;8.55;4.60;;;;;;;15.63;52.21;96857.75;4989070;28;20198;-72
2023/04/09 13:32:05;;;;;;;8.50;4.20;;;;;;;15.47;47.57;96862.50;4989445;28;20341;-72
2023/04/09 13:34:32;;;;;;;10.23;4.55;;;;;;;15.74;48.17;96856.38;4990831;28;20202;-71
2023/04/09 13:36:59;;;;;;;8.65;4.80;;;;;;;15.64;48.95;96855.91;4990189;28;20195;-73
2023/04/09 13:39:27;;;;;;;8.15;4.28;;;;;;;15.59;46.23;96853.00;4993251;28;20221;-72
2023/04/09 13:41:55;;;;;;;8.93;4.57;;;;;;;15.33;49.29;96855.44;4990221;28;20238;-73
2023/04/09 13:44:21;;;;;;;8.50;4.55;;;;;;;14.72;50.98;96850.69;4991666;28;20851;-72
2023/04/09 13:46:48;;;;;;;8.10;4.05;;;;;;;14.03;48.88;96852.25;4990957;28;20233;-73
2023/04/09 13:49:15;;;;;;;5.82;3.70;;;;;;;13.83;49.60;96851.16;4988716;28;20225;-71
2023/04/09 13:51:41;;;;;;;6.38;3.40;;;;;;;13.68;49.98;96858.28;4990277;28;20287;-74
2023/04/09 13:54:10;;;;;;;7.78;3.75;;;;;;;13.61;48.20;96846.75;4990573;28;20206;-72
2023/04/09 13:56:38;;;;;;;8.25;3.85;;;;;;;13.69;47.53;96849.31;4989200;28;20207;-71
2023/04/09 13:59:05;;;;;;;7.18;3.60;;;;;;;13.69;50.12;96844.00;4976790;28;20579;-71
2023/04/09 14:01:31;;;;;;;7.88;3.85;;;;;;;14.65;49.70;96846.34;4977941;28;20223;-71
2023/04/09 14:03:58;;;;;;;7.13;3.53;;;;;;;14.86;48.29;96841.88;4978287;28;20207;-73
2023/04/09 14:06:25;;;;;;;7.75;4.07;;;;;;;13.88;48.77;96847.97;4977112;28;20219;-73
2023/04/09 14:08:51;;;;;;;8.40;4.00;;;;;;;13.89;47.96;96837.19;4976290;28;20582;-71
2023/04/09 14:11:18;;;;;;;9.85;4.50;;;;;;;13.65;47.56;96842.72;4976605;28;20840;-71
2023/04/09 14:13:46;;;;;;;7.85;3.95;;;;;;;13.75;48.35;96838.00;4976603;28;20210;-71
2023/04/09 14:16:12;;;;;;;8.15;4.38;;;;;;;13.83;46.74;96837.09;4978798;28;20214;-71
2023/04/09 14:18:39;;;;;;;9.50;4.15;;;;;;;13.73;46.60;96837.34;4975729;28;20203;-71
2023/04/09 14:21:06;;;;;;;7.75;4.05;;;;;;;13.86;47.32;96832.25;4978540;28;20600;-72
2023/04/09 14:23:33;;;;;;;10.77;4.13;;;;;;;13.94;51.62;96837.47;4976387;28;20253;-72
2023/04/09 14:26:00;;;;;;;7.00;3.88;;;;;;;14.71;49.99;96833.16;4976281;28;20578;-72
2023/04/09 14:28:27;;;;;;;9.85;4.45;;;;;;;14.74;49.46;96832.78;4975454;28;20204;-73
2023/04/09 14:30:55;;;;;;;10.95;5.00;;;;;;;15.17;48.29;96825.63;4978267;28;20208;-74
2023/04/09 14:33:21;;;;;;;8.75;4.78;;;;;;;15.44;47.47;96825.69;4979050;28;20218;-72
2023/04/09 14:35:48;;;;;;;11.23;5.32;;;;;;;15.86;46.86;96819.25;4977716;28;20218;-73
2023/04/09 14:38:15;;;;;;;8.80;4.55;;;;;;;15.67;48.15;96818.28;4975609;28;20667;-72
2023/04/09 14:40:41;;;;;;;10.43;4.93;;;;;;;15.94;46.85;96819.09;4975183;28;20429;-73
2023/04/09 14:43:08;;;;;;;8.98;4.85;;;;;;;15.58;46.65;96822.13;4975455;28;20499;-72
2023/04/09 14:45:35;;;;;;;9.48;4.80;;;;;;;16.28;46.03;96823.59;4975887;28;20675;-73
2023/04/09 14:48:03;;;;;;;10.45;5.00;;;;;;;16.58;43.77;96812.47;4975790;28;20615;-73
2023/04/09 14:50:31;;;;;;;8.40;4.85;;;;;;;16.60;45.57;96815.75;4975176;28;20208;-74
2023/04/09 14:52:57;;;;;;;10.32;5.47;;;;;;;16.40;47.87;96814.88;4975418;28;20234;-72
2023/04/09 14:55:24;;;;;;;10.85;4.75;;;;;;;16.76;45.29;96818.06;4976109;28;20582;-72
2023/04/09 14:57:51;;;;;;;9.18;4.88;;;;;;;15.47;44.49;96817.34;4975698;28;20312;-72
2023/04/09 15:00:17;;;;;;;9.43;4.50;;;;;;;14.32;46.27;96823.09;4974885;28;20552;-73
2023/04/09 15:02:44;;;;;;;8.85;4.32;;;;;;;14.16;48.40;96820.66;4976224;28;20227;-73
2023/04/09 15:05:12;;;;;;;8.80;4.63;;;;;;;13.67;50.20;96827.50;4976187;28;20214;-72
2023/04/09 15:07:38;;;;;;;9.35;4.15;;;;;;;13.60;48.81;96818.59;4975075;28;20230;-72
2023/04/09 15:10:06;;;;;;;9.07;4.72;;;;;;;14.65;46.50;96817.97;4973791;28;20215;-73
2023/04/09 15:12:33;;;;;;;9.23;3.90;;;;;;;15.83;43.89;96820.66;4976550;28;20223;-72
2023/04/09 15:15:00;;;;;;;10.48;4.03;;;;;;;16.64;41.25;96811.69;4975716;28;20429;-72
2023/04/09 15:17:27;;;;;;;9.32;4.30;;;;;;;16.26;40.91;96813.16;4975043;28;20205;-72
2023/04/09 15:19:54;;;;;;;8.38;4.63;;;;;;;17.23;40.22;96803.59;4975679;28;20631;-73
2023/04/09 15:22:22;;;;;;;9.55;4.53;;;;;;;17.71;39.53;96805.03;4974960;28;20230;-72
2023/04/09 15:24:49;;;;;;;9.90;4.85;;;;;;;18.56;38.29;96804.63;4975369;28;20211;-73
2023/04/09 15:27:15;;;;;;;8.90;5.00;;;;;;;17.35;42.35;96803.81;4974825;28;20327;-72
2023/04/09 15:29:42;;;;;;;10.35;5.28;;;;;;;16.27;45.06;96820.13;4975232;28;20205;-72
2023/04/09 15:32:08;;;;;;;9.40;4.80;;;;;;;16.67;43.94;96811.28;4974922;28;20235;-72
2023/04/09 15:34:35;;;;;;;8.77;4.95;;;;;;;17.86;42.09;96809.13;4975004;28;20673;-71
2023/04/09 15:37:01;;;;;;;9.05;4.90;;;;;;;18.41;40.54;96803.25;4975426;28;20246;-73
2023/04/09 15:39:31;;;;;;;9.20;5.10;;;;;;;16.62;44.86;96821.69;4974278;28;20214;-73
2023/04/09 15:41:58;;;;;;;12.32;5.22;;;;;;;15.55;47.19;96820.66;4974526;28;20232;-73
2023/04/09 15:44:24;;;;;;;9.95;4.85;;;;;;;14.39;48.44;96816.03;4975248;28;20208;-72
2023/04/09 15:46:51;;;;;;;8.85;4.88;;;;;;;13.74;49.08;96819.63;4974995;28;20227;-74
2023/04/09 15:49:18;;;;;;;8.60;4.45;;;;;;;13.44;49.57;96824.09;4974404;28;20469;-72
2023/04/09 15:51:44;;;;;;;9.70;5.22;;;;;;;13.23;51.48;96819.66;4974520;28;20234;-72
2023/04/09 15:54:11;;;;;;;8.82;4.72;;;;;;;13.53;50.44;96809.75;4975583;28;20211;-74
2023/04/09 15:56:39;;;;;;;8.32;4.82;;;;;;;13.40;50.59;96816.66;4974900;28;20360;-71
2023/04/09 15:59:07;;;;;;;9.98;5.20;;;;;;;13.29;51.54;96819.78;4974859;28;20242;-74
2023/04/09 16:01:33;;;;;;;9.95;5.15;;;;;;;15.28;48.18;96810.84;4974415;28;20600;-72
2023/04/09 16:04:00;;;;;;;9.20;4.95;;;;;;;16.63;44.04;96820.69;4973233;28;20213;-75
2023/04/09 16:06:27;;;;;;;8.70;4.38;;;;;;;18.63;40.17;96805.38;4972971;28;20699;-73
2023/04/09 16:08:53;;;;;;;8.10;4.32;;;;;;;19.11;37.35;96809.28;4977434;28;20226;-73
2023/04/09 16:11:20;;;;;;;7.50;4.53;;;;;;;20.67;35.23;96812.09;4974175;28;20219;-72
2023/04/09 16:13:48;;;;;;;8.88;4.95;;;;;;;21.11;34.54;96808.00;4977242;28;20204;-73
2023/04/09 16:18:44;;;;;;;11.23;6.13;;;;;;;19.96;36.23;96810.22;5096416;27;20547;-72
2023/04/09 16:21:11;;;;;;;10.25;5.93;;;;;;;19.00;39.11;96825.94;5092731;28;20230;-72
2023/04/09 16:23:38;;;;;;;12.10;6.00;;;;;;;19.45;38.71;96817.66;5093348;28;20762;-72
2023/04/09 16:26:05;;;;;;;10.75;5.28;;;;;;;18.55;38.33;96832.34;5093075;28;20203;-72
2023/04/09 16:28:32;;;;;;;8.32;4.82;;;;;;;19.24;36.88;96831.38;5091884;28;20218;-71
2023/04/09 16:33:34;;;;;;;10.93;5.68;;;;;;;17.78;39.12;96837.81;5078493;27;20627;-74
2023/04/09 16:36:01;;;;;;;8.88;5.18;;;;;;;16.67;41.77;96840.53;5070475;28;20208;-72
2023/04/09 16:38:28;;;;;;;8.93;5.03;;;;;;;14.84;45.30;96843.91;5072609;28;20210;-73
2023/04/09 16:40:55;;;;;;;11.02;5.10;;;;;;;14.34;47.23;96840.44;5073547;28;20199;-73
2023/04/09 16:43:21;;;;;;;10.25;6.05;;;;;;;13.89;48.69;96844.31;5072956;28;20771;-72
2023/04/09 16:45:48;;;;;;;12.18;6.07;;;;;;;14.51;46.76;96841.06;5073052;28;20203;-73
2023/04/09 16:48:15;;;;;;;11.10;5.97;;;;;;;16.17;43.99;96840.91;5070364;28;20223;-73
2023/04/09 16:50:42;;;;;;;11.00;5.95;;;;;;;16.72;42.41;96835.44;5073656;28;20204;-72
2023/04/09 16:53:09;;;;;;;11.25;5.80;;;;;;;17.69;40.75;96828.41;5072603;28;21218;-73
2023/04/09 16:55:36;;;;;;;11.20;6.50;;;;;;;18.51;39.95;96825.78;5072641;28;20554;-72
2023/04/09 16:58:02;;;;;;;11.27;6.07;;;;;;;17.19;40.98;96825.50;5072638;28;20208;-72
2023/04/09 17:00:29;;;;;;;9.73;5.70;;;;;;;18.40;40.24;96822.94;5071829;28;20220;-72
2023/04/09 17:02:56;;;;;;;10.77;5.90;;;;;;;18.75;39.68;96816.22;5071241;28;20259;-72
2023/04/09 17:05:23;;;;;;;9.50;5.88;;;;;;;19.22;38.77;96821.91;5073234;28;20212;-72
2023/04/09 17:07:52;;;;;;;10.85;5.70;;;;;;;18.62;39.49;96819.78;5072429;28;20211;-72
2023/04/09 17:10:19;;;;;;;9.27;5.45;;;;;;;18.12;40.21;96822.38;5072604;28;20196;-72
2023/04/09 17:12:46;;;;;;;9.27;5.68;;;;;;;18.10;39.56;96824.47;5073150;28;20230;-73
2023/04/09 17:15:12;;;;;;;9.95;5.47;;;;;;;16.81;41.38;96835.06;5070911;28;20227;-74
2023/04/09 17:17:39;;;;;;;9.35;5.57;;;;;;;16.37;43.24;96828.56;5072626;28;20314;-72
2023/04/09 17:20:06;;;;;;;9.00;5.80;;;;;;;15.80;44.33;96831.69;5072044;28;20820;-72
2023/04/09 17:22:33;;;;;;;12.48;5.72;;;;;;;14.86;45.33;96838.41;5070208;28;20228;-73
2023/04/09 17:25:02;;;;;;;9.65;5.13;;;;;;;14.63;46.44;96835.91;5069518;28;20200;-74
2023/04/09 17:27:29;;;;;;;10.10;5.63;;;;;;;14.74;46.97;96842.56;5068994;28;20622;-72
2023/04/09 17:29:55;;;;;;;8.32;4.57;;;;;;;14.55;47.64;96839.69;5071434;28;20207;-73
2023/04/09 17:32:22;;;;;;;9.20;5.57;;;;;;;15.08;47.59;96838.22;5069957;28;20231;-74
2023/04/09 17:34:49;;;;;;;8.23;5.15;;;;;;;15.08;46.94;96835.56;5072184;28;20204;-72
2023/04/09 17:37:15;;;;;;;11.75;5.90;;;;;;;15.00;47.07;96837.53;5069629;28;20204;-72
2023/04/09 17:39:42;;;;;;;11.00;5.55;;;;;;;14.58;48.14;96840.13;5070002;28;20204;-72
2023/04/09 17:42:10;;;;;;;8.98;5.28;;;;;;;14.01;50.69;96833.06;5067916;28;20239;-72
2023/04/09 17:44:37;;;;;;;10.30;5.43;;;;;;;13.24;52.00;96831.88;5057914;28;20204;-72
2023/04/09 17:47:04;;;;;;;10.77;5.65;;;;;;;12.51;54.32;96843.13;5058298;28;20709;-73
2023/04/09 17:49:31;;;;;;;12.05;6.10;;;;;;;12.07;55.54;96842.03;5058126;28;20337;-74
2023/04/09 17:51:58;;;;;;;10.13;5.45;;;;;;;11.83;56.14;96847.41;5056110;28;20846;-72
2023/04/09 17:54:24;;;;;;;12.70;5.85;;;;;;;11.66;57.81;96843.16;5058085;28;20204;-73
2023/04/09 17:56:51;;;;;;;10.32;5.32;;;;;;;11.36;58.89;96845.66;5055674;28;20606;-72
2023/04/09 17:59:19;;;;;;;10.90;5.25;;;;;;;11.11;59.94;96849.31;5057256;28;21274;-72
2023/04/09 18:01:45;;;;;;;10.38;5.03;;;;;;;10.84;61.60;96850.63;5054289;28;20259;-72
2023/04/09 18:04:12;;;;;;;12.77;6.55;;;;;;;10.69;62.97;96857.53;5056192;28;20207;-72
2023/04/09 18:06:39;;;;;;;10.68;4.97;;;;;;;10.38;63.44;96864.38;5057104;28;20228;-72
2023/04/09 18:09:05;;;;;;;9.32;5.38;;;;;;;10.25;64.76;96864.03;5054934;28;20683;-72
2023/04/09 18:11:32;;;;;;;8.13;5.00;;;;;;;10.00;65.97;96866.72;5056055;28;20256;-72
2023/04/09 18:13:58;;;;;;;11.80;5.13;;;;;;;9.87;66.75;96869.75;5056351;28;20205;-73
2023/04/09 18:16:27;;;;;;;10.32;5.03;;;;;;;9.63;68.11;96873.25;5055257;28;20205;-71
2023/04/09 18:18:53;;;;;;;10.23;5.20;;;;;;;9.20;69.99;96889.06;5057895;28;20232;-71
2023/04/09 18:21:20;;;;;;;13.40;5.80;;;;;;;8.99;70.67;96893.81;5057685;28;20220;-72
2023/04/09 18:23:46;;;;;;;9.23;5.20;;;;;;;8.81;71.38;96895.63;5057360;28;20270;-71
2023/04/09 18:26:13;;;;;;;9.63;4.93;;;;;;;8.81;71.86;96900.88;5058107;28;20208;-71
2023/04/09 18:28:39;;;;;;;10.20;5.03;;;;;;;8.64;72.60;96896.47;5057340;28;20590;-72
2023/04/09 18:31:06;;;;;;;10.57;4.70;;;;;;;8.53;73.02;96899.28;5054692;28;20212;-73
2023/04/09 18:33:34;;;;;;;10.43;4.67;;;;;;;8.35;74.19;96899.41;5058175;28;20196;-74
2023/04/09 18:36:01;;;;;;;13.27;5.90;;;;;;;8.28;74.83;96899.16;5057503;28;20204;-73
2023/04/09 18:38:28;;;;;;;8.97;3.80;;;;;;;8.54;84.88;96906.19;5056854;28;20212;-72
2023/04/09 18:40:56;;;;;;;7.70;3.37;;;;;;;9.70;91.69;96894.34;5057747;28;20242;-71
2023/04/09 18:43:23;;;;;;;9.30;4.57;;;;;;;10.37;81.43;96895.19;5058210;28;20734;-73
2023/04/09 18:45:49;;;;;;;12.10;5.03;;;;;;;10.70;70.77;96902.16;5057106;28;20208;-72
2023/04/09 18:48:16;;;;;;;11.18;6.30;;;;;;;9.96;69.80;96908.31;5055764;28;20441;-71
2023/04/09 18:50:43;;;;;;;12.83;5.50;;;;;;;9.04;72.67;96914.38;5058319;28;20677;-71
2023/04/09 18:53:10;;;;;;;10.87;5.47;;;;;;;8.56;74.73;96920.00;5056578;28;20239;-70
2023/04/09 18:55:37;;;;;;;10.97;5.60;;;;;;;8.34;75.35;96918.75;5055928;28;20242;-71
2023/04/09 18:58:07;;;;;;;10.13;4.80;;;;;;;8.27;75.62;96922.94;5056848;28;20562;-70
2023/04/09 19:00:33;;;;;;;13.87;5.87;;;;;;;8.06;76.24;96920.53;5056240;28;20202;-70
2023/04/09 19:03:00;;;;;;;12.70;6.03;;;;;;;7.96;76.80;96929.44;5055248;28;20235;-71
2023/04/09 19:05:26;;;;;;;10.93;5.57;;;;;;;7.87;77.35;96931.09;5057079;28;20204;-72
2023/04/09 19:07:59;;;;;;;11.63;5.53;;;;;;;7.61;79.58;96939.78;5056901;28;20204;-71
2023/04/09 19:10:26;;;;;;;11.27;5.50;;;;;;;7.44;79.40;96937.84;5057085;28;20209;-71
2023/04/09 19:12:52;;;;;;;11.93;5.63;;;;;;;7.34;81.00;96946.72;5056796;28;20220;-71
2023/04/09 19:15:19;;;;;;;9.97;5.07;;;;;;;7.31;80.63;96939.94;5056858;28;20228;-70
2023/04/09 19:17:47;;;;;;;10.90;5.67;;;;;;;6.85;82.98;96943.44;5056207;28;20258;-70
2023/04/09 19:20:14;;;;;;;11.37;5.77;;;;;;;6.87;83.25;96950.19;5056387;28;20729;-70
2023/04/09 19:22:40;;;;;;;11.67;5.37;;;;;;;6.96;82.96;96948.53;5056849;28;20919;-71
2023/04/09 19:25:09;;;;;;;10.37;5.23;;;;;;;7.02;82.73;96937.50;5056597;28;21341;-72
2023/04/09 19:27:36;;;;;;;12.57;5.37;;;;;;;6.77;82.87;96940.66;5056301;28;20212;-70
2023/04/09 19:30:02;;;;;;;12.17;5.43;;;;;;;6.58;83.71;96945.06;5054320;28;20219;-70
2023/04/09 19:32:29;;;;;;;12.17;5.67;;;;;;;6.56;84.23;96942.56;5056667;28;20228;-71
2023/04/09 19:34:56;;;;;;;11.40;4.90;;;;;;;6.53;84.71;96944.63;5056454;28;20207;-70
2023/04/09 19:37:26;;;;;;;9.53;4.43;;;;;;;6.39;86.71;96939.78;5056277;28;20204;-73
2023/04/09 19:39:52;;;;;;;12.07;5.33;;;;;;;6.28;87.67;96945.13;5055925;28;20197;-72
2023/04/09 19:42:21;;;;;;;11.23;5.73;;;;;;;6.17;88.63;96950.47;5056371;28;21285;-71
2023/04/09 19:44:47;;;;;;;12.27;6.03;;;;;;;5.93;89.24;96942.16;5056316;28;20660;-72
